Flight Track Log - Related Links

Times and Time Zones

All times are in EDT time to prevent confusion due to time zone crossing. See the SWA3685 flight status page for this flight to view local times or setup timezone preferences in your user account.

Time Position Orientation Groundspeed Altitude Reporting Facility
EDT Latitude Longitude Course Direction KTS MPH feet Rate Location/Type
Fri 02:34:20 PM 41.8333 -87.7500 82° East 219 252 2,500  Level Chicago TRACON
Fri 02:35:20 PM 41.8333 -87.6667 90° East 228 262 4,300 2,500 Climbing Chicago TRACON
Fri 02:36:20 PM 41.8500 -87.5667 77° East 255 293 7,500 3,000 Climbing Chicago TRACON
Fri 02:37:16 PM 41.8531 -87.4881 87° East 268 308 10,100 3,000 Climbing Chicago Center
Fri 02:38:18 PM 41.8272 -87.3861 109° East 283 326 13,400 2,855 Climbing Chicago Center
Fri 02:39:00 PM 41.8649 -87.0003 82° East  Level Estimated
Fri 02:39:20 PM 41.8056 -87.2731 104° East 309 356 16,000  Level Chicago Center
Fri 02:40:22 PM 41.7797 -87.1494 106° East 340 391 18,400 2,323 Climbing Chicago Center
Fri 02:41:24 PM 41.7581 -87.0183 102° East 360 414 20,800 2,710 Climbing Chicago Center
Fri 02:42:26 PM 41.7625 -86.8494 88° East 378 435 24,000 2,903 Climbing Chicago Center
Fri 02:43:28 PM 41.7653 -86.7103 88° East 376 433 26,800 2,032 Climbing Chicago Center
Fri 02:44:30 PM 41.7744 -86.5806 85° East 383 441 28,200 1,306 Climbing Chicago Center
Fri 02:45:32 PM 41.7989 -86.4011 80° East 407 468 29,500 1,210 Climbing Chicago Center
Fri 02:46:34 PM 41.8186 -86.2394 81° East 435 501 30,700 1,355 Climbing Chicago Center
Fri 02:47:36 PM 41.8403 -86.0725 80° East 451 519 32,300 1,403 Climbing Chicago Center
Fri 02:48:38 PM 41.8633 -85.9061 79° East 453 521 33,600 1,355 Climbing Chicago Center
Fri 02:49:40 PM 41.8831 -85.7347 81° East 459 528 35,100 1,403 Climbing Chicago Center
Fri 02:50:42 PM 41.9036 -85.5622 81° East 463 533 36,500 1,210 Climbing Chicago Center
Fri 02:51:44 PM 41.9256 -85.3903 80° East 463 533 37,600 1,210 Climbing Chicago Center
Fri 02:52:46 PM 41.9475 -85.2164 80° East 469 540 39,000 750 Climbing Chicago Center
Fri 02:53:36 PM 41.9708 -85.0494 79° East 459 528 39,000  Level Cleveland Center
Fri 02:54:36 PM 41.9856 -84.8883 83° East 453 521 39,000  Level Cleveland Center
Fri 02:55:36 PM 42.0061 -84.7250 80° East 448 516 39,000  Level Cleveland Center
Fri 02:56:36 PM 42.0244 -84.5583 82° East 441 507 39,000  Level Cleveland Center
Fri 02:57:36 PM 42.0406 -84.3942 82° East 441 507 39,000  Level Cleveland Center
Fri 02:58:36 PM 42.0561 -84.2358 82° East 441 507 39,000  Level Cleveland Center
Fri 02:59:36 PM 42.0733 -84.0856 81° East 441 507 39,000  Level Cleveland Center
Fri 03:00:36 PM 42.0906 -83.9214 82° East 441 507 39,000  Level Cleveland Center
Fri 03:01:36 PM 42.1056 -83.7600 83° East 441 507 39,000  Level Cleveland Center
Fri 03:02:36 PM 42.1206 -83.5956 83° East 441 507 39,000  Level Cleveland Center
Fri 03:03:36 PM 42.1419 -83.4117 81° East 446 513 39,000  Level Cleveland Center
Fri 03:04:36 PM 42.1606 -83.2444 81° East 446 513 39,000  Level Cleveland Center
Fri 03:05:36 PM 42.1744 -83.0908 83° East 446 513 39,000  Level Cleveland Center
Fri 03:06:36 PM 42.1903 -82.9261 83° East 446 513 39,000  Level Cleveland Center
Fri 03:07:36 PM 42.2061 -82.7556 83° East 446 513 39,000  Level Cleveland Center
Fri 03:08:36 PM 42.2217 -82.5908 83° East 446 513 39,000  Level Cleveland Center
Fri 03:09:36 PM 42.2411 -82.4286 81° East 446 513 39,000  Level Cleveland Center
Fri 03:10:36 PM 42.2561 -82.2636 83° East 446 513 39,000  Level Cleveland Center
Fri 03:11:36 PM 42.2711 -82.0789 84° East 446 513 39,000  Level Cleveland Center
Fri 03:12:36 PM 42.2878 -81.9164 82° East 438 504 39,000  Level Cleveland Center
Fri 03:13:36 PM 42.3022 -81.7511 83° East 441 507 39,000  Level Cleveland Center
Fri 03:14:36 PM 42.3161 -81.5856 83° East 445 512 39,000  Level Cleveland Center
Fri 03:15:36 PM 42.3300 -81.4200 83° East 445 512 39,000  Level Cleveland Center
Fri 03:16:36 PM 42.3436 -81.2517 84° East 445 512 39,000  Level Cleveland Center
Fri 03:17:36 PM 42.3569 -81.0833 84° East 445 512 39,000  Level Cleveland Center
Fri 03:18:36 PM 42.3700 -80.9344 83° East 445 512 39,000  Level Cleveland Center
Fri 03:19:36 PM 42.3831 -80.7658 84° East 448 516 39,000  Level Cleveland Center
Fri 03:20:36 PM 42.3978 -80.6000 83° East 448 516 39,000  Level Cleveland Center
Fri 03:21:36 PM 42.4100 -80.4286 84° East 448 516 39,000  Level Cleveland Center
Fri 03:22:36 PM 42.4203 -80.2597 85° East 448 516 39,000  Level Cleveland Center
Fri 03:23:36 PM 42.4342 -80.0797 84° East 443 510 39,000  Level Cleveland Center
Fri 03:24:36 PM 42.4478 -79.9108 84° East 448 516 39,000  Level Cleveland Center
Fri 03:25:36 PM 42.4592 -79.7472 85° East 443 510 39,000  Level Cleveland Center
Fri 03:26:36 PM 42.4747 -79.5783 83° East 443 510 39,000  Level Cleveland Center
Fri 03:27:36 PM 42.4836 -79.4147 86° East 443 510 39,000  Level Cleveland Center
Fri 03:28:36 PM 42.4942 -79.2514 85° East 443 510 39,000  Level Cleveland Center
Fri 03:29:36 PM 42.5067 -79.0847 84° East 443 510 39,000  Level Cleveland Center
Fri 03:30:36 PM 42.5150 -78.9214 86° East 443 510 39,000  Level Cleveland Center
Fri 03:31:36 PM 42.5269 -78.7575 84° East 443 510 39,000  Level Cleveland Center
Fri 03:32:36 PM 42.5389 -78.5936 84° East 443 510 39,000  Level Cleveland Center
Fri 03:33:36 PM 42.5483 -78.4272 86° East 443 510 39,000  Level Cleveland Center
Fri 03:34:36 PM 42.5578 -78.2633 85° East 443 510 39,000  Level Cleveland Center
Fri 03:35:36 PM 42.5689 -78.0967 85° East 443 510 39,000  Level Cleveland Center
Fri 03:36:36 PM 42.5778 -77.9325 86° East 443 510 39,000  Level Cleveland Center
Fri 03:37:36 PM 42.5883 -77.7631 85° East 449 517 39,000  Level Cleveland Center
Fri 03:40:44 PM 42.6178 -77.2403 85° East 480 552 39,000  Level Boston Center
Fri 03:41:44 PM 42.6250 -77.0686 87° East 474 545 39,000  Level Boston Center
Fri 03:42:44 PM 42.6339 -76.8969 86° East 474 545 39,000  Level Boston Center
Fri 03:43:44 PM 42.6428 -76.7253 86° East 474 545 39,000  Level Boston Center
Fri 03:44:44 PM 42.6519 -76.5903 85° East 474 545 39,000  Level Boston Center
Fri 03:45:44 PM 42.6594 -76.3792 87° East 469 540 39,000  Level Boston Center
Fri 03:46:44 PM 42.6672 -76.2100 86° East 458 527 39,000  Level Boston Center
Fri 03:47:44 PM 42.6747 -76.0383 87° East 458 527 39,000  Level Boston Center
Fri 03:48:44 PM 42.6822 -75.8664 87° East 453 521 39,000  Level Boston Center
Fri 03:49:44 PM 42.6894 -75.6944 87° East 453 521 39,000 -350 Level Boston Center
Fri 03:50:44 PM 42.6964 -75.5194 87° East 459 528 38,300 -850 Descending Boston Center
Fri 03:51:44 PM 42.7028 -75.3503 87° East 454 522 37,300 -650 Descending Boston Center
Fri 03:52:44 PM 42.7072 -75.1781 88° East 454 522 37,000 -150 Descending Boston Center
Fri 03:53:44 PM 42.7131 -75.0200 87° East 462 532 37,000  Level Boston Center
Fri 03:54:56 PM 42.7203 -74.7772 88° East 462 532 37,000  Level Boston Center
Fri 03:55:56 PM 42.7258 -74.6022 87° East 457 526 37,000  Level Boston Center
Fri 03:56:56 PM 42.7186 -74.4267 93° East 457 526 37,000  Level Boston Center
Fri 03:57:56 PM 42.7047 -74.2539 96° East 457 526 37,000  Level Boston Center
Fri 03:58:56 PM 42.6928 -74.0786 95° East 462 532 37,000  Level Boston Center
Fri 03:59:56 PM 42.6828 -73.9031 94° East 462 532 37,000  Level Boston Center
Fri 04:00:56 PM 42.6703 -73.7306 96° East 462 532 37,000  Level Boston Center
Fri 04:01:56 PM 42.6617 -73.5639 94° East 456 525 37,000  Level Boston Center
Fri 04:02:56 PM 42.6506 -73.3914 95° East 456 525 37,000  Level Boston Center
Fri 04:03:56 PM 42.6394 -73.2219 95° East 456 525 37,000 -1,050 Level Boston Center
Fri 04:04:56 PM 42.6300 -73.0664 95° East 461 531 34,900 -2,900 Descending Boston Center
Fri 04:05:56 PM 42.6122 -72.8858 98° East 468 539 31,200 -3,350 Descending Boston Center
Fri 04:06:56 PM 42.6003 -72.7081 95° East 479 551 28,200 -2,800 Descending Boston Center
Fri 04:07:56 PM 42.5858 -72.5500 97° East 456 525 25,600 -2,400 Descending Boston Center
Fri 04:08:56 PM 42.5733 -72.4006 96° East 425 489 23,400 -2,150 Descending Boston Center
Fri 04:09:56 PM 42.5628 -72.2597 96° East 399 459 21,300 -2,100 Descending Boston Center
Fri 04:10:56 PM 42.5519 -72.1161 96° East 377 434 19,200 -2,100 Descending Boston Center
Fri 04:11:56 PM 42.5369 -71.9667 98° East 366 421 17,100 -2,100 Descending Boston Center
Fri 04:12:56 PM 42.5258 -71.8344 96° East 366 421 15,000 -2,350 Descending Boston Center
Fri 04:13:56 PM 42.5125 -71.7050 98° East 356 410 12,400 -2,050 Descending Boston Center
Fri 04:14:56 PM 42.5014 -71.5783 97° East 346 398 10,900 -700 Descending Boston Center
Fri 04:15:56 PM 42.4900 -71.4603 97° East 323 372 11,000  Climbing Boston Center
Fri 04:16:17 PM 42.4833 -71.4167 102° East 318 366 10,900 -759 Descending KA90
Fri 04:17:23 PM 42.4833 -71.3000 90° East 278 320 9,900 -1,045 Descending KA90
Fri 04:18:29 PM 42.4667 -71.1833 101° East 270 311 8,600 -1,048 Descending KA90
Fri 04:19:29 PM 42.4500 -71.1000 105° East 236 272 7,700 -800 Descending KA90
Fri 04:20:29 PM 42.4333 -71.0167 105° East 222 255 7,000 -895 Descending KA90
Fri 04:21:23 PM 42.3833 -70.9833 154° Southeast 230 265 6,000 -526 Descending KA90
Fri 04:22:23 PM 42.3333 -70.9500 154° Southeast 226 260 6,000  Level KA90
Fri 04:23:23 PM 42.2667 -70.9500 180° South 232 267 6,000 -500 Level KA90
Fri 04:24:23 PM 42.2167 -70.9833 206° Southwest 220 253 5,000 -1,000 Descending KA90
Fri 04:25:17 PM 42.1667 -71.0000 194° South 216 249 4,100 -500 Descending KA90
Fri 04:26:23 PM 42.1000 -71.0333 200° South 213 245 4,000 -48 Descending KA90
Fri 04:27:23 PM 42.0667 -71.0833 228° Southwest 221 254 4,000  Level KA90
Fri 04:28:23 PM 42.1167 -71.1167 334° Northwest 196 226 4,000 -250 Level KA90
Fri 04:29:23 PM 42.1667 -71.1000 14° North 179 206 3,500 -600 Descending KA90
Fri 04:30:23 PM 42.2000 -71.0833 20° North 164 189 2,800 -678 Descending KA90
Fri 04:31:18 PM 42.2500 -71.0667 14° North 157 181 2,200 -595 Descending KA90
Fri 04:32:24 PM 42.2833 -71.0500 20° North 136 157 1,600 -600 Descending KA90
Fri 04:33:18 PM 42.3167 -71.0333 20° North 121 139 1,000 -667 Descending KA90

Login

Don't have an account? Register now (free) for customized features, flight alerts, and more!